createdAt,value
2018-07-24T00:01:32.926Z,6.50
2018-07-24T00:04:01.299Z,6.33
2018-07-24T00:06:29.695Z,7.97
2018-07-24T00:08:58.070Z,6.80
2018-07-24T00:11:26.475Z,6.13
2018-07-24T00:13:54.842Z,7.60
2018-07-24T00:16:23.230Z,7.50
2018-07-24T00:18:51.622Z,7.40
2018-07-24T00:21:20.018Z,8.07
2018-07-24T00:23:48.408Z,6.23
2018-07-24T00:26:16.819Z,6.03
2018-07-24T00:28:45.194Z,6.00
2018-07-24T00:31:13.599Z,7.17
2018-07-24T00:33:41.971Z,6.27
2018-07-24T00:36:10.365Z,7.23
2018-07-24T00:38:38.740Z,6.20
2018-07-24T00:41:07.158Z,6.40
2018-07-24T00:43:35.530Z,6.30
2018-07-24T00:46:03.922Z,5.80
2018-07-24T00:48:32.290Z,6.20
2018-07-24T00:51:00.694Z,6.63
2018-07-24T00:53:29.064Z,5.97
2018-07-24T00:55:57.490Z,6.87
2018-07-24T00:58:25.857Z,6.33
2018-07-24T01:00:54.261Z,6.70
2018-07-24T01:03:22.626Z,5.97
2018-07-24T01:05:51.010Z,6.30
2018-07-24T01:08:19.377Z,6.40
2018-07-24T01:10:47.791Z,5.80
2018-07-24T01:13:16.162Z,6.90
2018-07-24T01:15:44.525Z,5.87
2018-07-24T01:18:12.933Z,6.77
2018-07-24T01:20:41.296Z,7.10
2018-07-24T01:23:09.705Z,6.40
2018-07-24T01:25:38.077Z,6.50
2018-07-24T01:28:06.465Z,5.60
2018-07-24T01:30:34.821Z,6.60
2018-07-24T01:33:03.205Z,6.27
2018-07-24T01:35:31.561Z,6.37
2018-07-24T01:37:59.954Z,6.70
2018-07-24T01:40:28.313Z,4.70
2018-07-24T01:42:56.706Z,5.93
2018-07-24T01:45:25.080Z,6.00
2018-07-24T01:47:53.482Z,6.10
2018-07-24T01:50:21.850Z,6.03
2018-07-24T01:52:50.245Z,5.77
2018-07-24T01:55:18.605Z,5.90
2018-07-24T01:57:46.997Z,6.77
2018-07-24T02:00:16.953Z,5.77
2018-07-24T02:02:45.351Z,6.10
2018-07-24T02:05:14.017Z,5.77
2018-07-24T02:07:43.045Z,6.93
2018-07-24T02:10:11.446Z,6.53
2018-07-24T02:12:40.047Z,6.27
2018-07-24T02:15:08.715Z,6.60
2018-07-24T02:17:37.491Z,7.23
2018-07-24T02:20:06.138Z,5.87
2018-07-24T02:22:34.651Z,6.03
2018-07-24T02:25:03.071Z,7.00
2018-07-24T02:27:31.461Z,5.80
2018-07-24T02:29:59.839Z,6.80
2018-07-24T02:32:28.229Z,7.00
2018-07-24T02:34:56.598Z,6.13
2018-07-24T02:37:24.989Z,7.03
2018-07-24T02:39:53.366Z,6.10
2018-07-24T02:42:21.781Z,6.83
2018-07-24T02:44:50.158Z,6.13
2018-07-24T02:47:18.550Z,6.27
2018-07-24T02:49:46.920Z,7.63
2018-07-24T02:52:15.308Z,6.87
2018-07-24T02:54:44.518Z,6.40
2018-07-24T02:57:12.909Z,7.40
2018-07-24T02:59:41.273Z,7.33
2018-07-24T03:02:09.839Z,7.00
2018-07-24T03:04:38.243Z,7.70
2018-07-24T03:07:06.633Z,7.17
2018-07-24T03:09:35.009Z,7.00
2018-07-24T03:12:03.394Z,7.10
2018-07-24T03:14:31.758Z,7.00
2018-07-24T03:17:00.128Z,7.87
2018-07-24T03:19:28.546Z,8.60
2018-07-24T03:21:56.928Z,7.10
2018-07-24T03:24:25.321Z,7.50
2018-07-24T03:26:53.685Z,7.80
2018-07-24T03:29:22.213Z,7.30
2018-07-24T03:31:50.585Z,7.50
2018-07-24T03:34:18.975Z,7.67
2018-07-24T03:36:48.969Z,7.13
2018-07-24T03:39:17.437Z,7.47
2018-07-24T03:41:45.812Z,7.27
2018-07-24T03:44:14.197Z,7.43
2018-07-24T03:46:42.568Z,7.40
2018-07-24T03:49:10.961Z,7.10
2018-07-24T03:51:39.474Z,7.37
2018-07-24T03:54:07.858Z,7.40
2018-07-24T03:56:36.221Z,6.77
2018-07-24T03:59:04.610Z,7.20
2018-07-24T04:01:33.056Z,7.27
2018-07-24T04:04:01.467Z,8.83
2018-07-24T04:06:29.842Z,6.50
2018-07-24T04:08:58.229Z,7.13
2018-07-24T04:11:26.711Z,7.00
2018-07-24T04:13:55.101Z,7.27
2018-07-24T04:16:23.479Z,7.17
2018-07-24T04:18:51.889Z,6.30
2018-07-24T04:21:20.515Z,7.13
2018-07-24T04:23:49.735Z,6.47
2018-07-24T04:26:18.138Z,6.57
2018-07-24T04:28:46.997Z,6.67
2018-07-24T04:31:15.766Z,6.23
2018-07-24T04:33:44.601Z,6.37
2018-07-24T04:36:12.966Z,6.00
2018-07-24T04:38:41.395Z,6.77
2018-07-24T04:41:09.894Z,6.30
2018-07-24T04:43:38.295Z,6.17
2018-07-24T04:46:06.674Z,6.53
2018-07-24T04:48:35.128Z,6.00
2018-07-24T04:51:03.489Z,5.50
2018-07-24T04:53:31.885Z,5.87
2018-07-24T04:56:00.480Z,5.33
2018-07-24T04:58:28.865Z,5.67
2018-07-24T05:00:57.248Z,5.10
2018-07-24T05:03:25.647Z,5.73
2018-07-24T05:05:54.042Z,5.87
2018-07-24T05:08:22.465Z,5.70
2018-07-24T05:10:50.835Z,5.50
2018-07-24T05:13:19.227Z,5.97
2018-07-24T05:15:47.603Z,5.80
2018-07-24T05:18:16.017Z,5.87
2018-07-24T05:20:44.464Z,4.90
2018-07-24T05:23:12.841Z,5.17
2018-07-24T05:25:41.256Z,5.17
2018-07-24T05:28:09.621Z,5.47
2018-07-24T05:30:38.021Z,4.73
2018-07-24T05:33:06.547Z,5.00
2018-07-24T05:35:34.923Z,4.40
2018-07-24T05:38:03.289Z,5.00
2018-07-24T05:40:31.674Z,5.13
2018-07-24T05:43:00.053Z,4.30
2018-07-24T05:45:28.437Z,4.43
2018-07-24T05:47:56.820Z,4.70
2018-07-24T05:50:25.201Z,4.10
2018-07-24T05:52:53.586Z,4.03
2018-07-24T05:55:21.989Z,4.00
2018-07-24T05:57:50.355Z,4.27
2018-07-24T06:00:18.742Z,4.03
2018-07-24T06:02:47.114Z,4.70
2018-07-24T06:05:15.510Z,4.40
2018-07-24T06:07:43.884Z,3.90
2018-07-24T06:10:12.275Z,3.80
2018-07-24T06:12:40.645Z,4.47
2018-07-24T06:15:09.557Z,4.63
2018-07-24T06:17:37.953Z,3.83
2018-07-24T06:20:07.934Z,4.10
2018-07-24T06:22:36.329Z,3.67
2018-07-24T06:25:04.780Z,4.20
2018-07-24T06:27:33.202Z,4.73
2018-07-24T06:30:01.605Z,4.00
2018-07-24T06:32:29.983Z,3.97
2018-07-24T06:34:58.394Z,3.50
2018-07-24T06:37:26.771Z,4.40
2018-07-24T06:39:55.162Z,4.33
2018-07-24T06:42:23.530Z,3.87
2018-07-24T06:44:51.923Z,4.03
2018-07-24T06:47:20.304Z,4.10
2018-07-24T06:49:48.703Z,4.00
2018-07-24T06:52:17.078Z,3.70
2018-07-24T06:54:45.534Z,3.80
2018-07-24T06:57:13.898Z,3.73
2018-07-24T06:59:42.294Z,4.17
2018-07-24T07:02:10.738Z,4.43
2018-07-24T07:04:39.126Z,3.93
2018-07-24T07:07:07.512Z,4.10
2018-07-24T07:09:35.916Z,4.10
2018-07-24T07:12:04.297Z,4.20
2018-07-24T07:14:32.691Z,3.60
2018-07-24T07:17:01.060Z,3.40
2018-07-24T07:19:29.454Z,3.47
2018-07-24T07:21:57.845Z,3.90
2018-07-24T07:24:26.214Z,4.47
2018-07-24T07:26:54.601Z,3.57
2018-07-24T07:29:22.970Z,3.57
2018-07-24T07:31:51.359Z,3.30
2018-07-24T07:34:19.735Z,3.73
2018-07-24T07:36:48.183Z,4.20
2018-07-24T07:39:16.642Z,3.57
2018-07-24T07:41:44.989Z,4.07
2018-07-24T07:44:13.383Z,3.47
2018-07-24T07:46:41.802Z,3.40
2018-07-24T07:49:10.281Z,4.30
2018-07-24T07:51:38.670Z,4.13
2018-07-24T07:54:07.041Z,4.00
2018-07-24T07:56:35.435Z,3.30
2018-07-24T07:59:03.802Z,4.10
2018-07-24T08:01:32.195Z,3.93
2018-07-24T08:04:00.589Z,11.17
2018-07-24T08:06:29.043Z,3.87
2018-07-24T08:08:57.409Z,5.77
2018-07-24T08:11:25.802Z,3.43
2018-07-24T08:13:54.189Z,4.13
2018-07-24T08:16:22.574Z,3.53
2018-07-24T08:18:50.966Z,4.00
2018-07-24T08:21:19.353Z,3.83
2018-07-24T08:23:47.722Z,3.57
2018-07-24T08:26:16.115Z,3.80
2018-07-24T08:28:44.556Z,3.80
2018-07-24T08:31:12.958Z,3.67
2018-07-24T08:33:41.388Z,3.63
2018-07-24T08:36:09.757Z,4.63
2018-07-24T08:38:38.129Z,3.30
2018-07-24T08:41:06.539Z,3.13
2018-07-24T08:43:34.910Z,2.47
2018-07-24T08:46:03.327Z,3.20
2018-07-24T08:48:31.708Z,3.70
2018-07-24T08:51:00.103Z,2.97
2018-07-24T08:53:28.721Z,3.30
2018-07-24T08:55:56.893Z,3.87
2018-07-24T08:58:25.267Z,3.00
2018-07-24T09:00:53.659Z,2.90
2018-07-24T09:03:22.035Z,3.23
2018-07-24T09:05:50.460Z,3.40
2018-07-24T09:08:18.829Z,3.40
2018-07-24T09:10:47.277Z,3.73
2018-07-24T09:13:15.659Z,3.37
2018-07-24T09:15:44.025Z,3.30
2018-07-24T09:18:12.445Z,3.97
2018-07-24T09:20:40.839Z,3.63
2018-07-24T09:23:09.227Z,4.67
2018-07-24T09:25:37.604Z,4.60
2018-07-24T09:28:06.230Z,3.17
2018-07-24T09:30:34.642Z,3.40
2018-07-24T09:33:03.029Z,3.73
2018-07-24T09:35:31.410Z,3.27
2018-07-24T09:37:59.801Z,3.20
2018-07-24T09:40:28.213Z,3.57
2018-07-24T09:42:56.642Z,3.60
2018-07-24T09:45:25.028Z,3.80
2018-07-24T09:47:53.432Z,3.03
2018-07-24T09:50:21.801Z,3.33
2018-07-24T09:52:50.214Z,4.00
2018-07-24T09:55:18.646Z,3.77
2018-07-24T09:57:47.044Z,3.60
2018-07-24T10:00:15.415Z,3.10
2018-07-24T10:02:43.830Z,3.40
2018-07-24T10:05:12.198Z,3.20
2018-07-24T10:07:40.594Z,2.80
2018-07-24T10:10:08.971Z,2.70
2018-07-24T10:12:37.425Z,3.23
2018-07-24T10:15:06.051Z,3.00
2018-07-24T10:17:34.460Z,2.80
2018-07-24T10:20:02.862Z,3.10
2018-07-24T10:22:31.262Z,2.90
2018-07-24T10:24:59.662Z,3.10
2018-07-24T10:27:28.061Z,2.73
2018-07-24T10:29:56.449Z,2.83
2018-07-24T10:32:24.863Z,3.13
2018-07-24T10:34:53.342Z,3.30
2018-07-24T10:37:21.746Z,2.90
2018-07-24T10:39:50.121Z,2.73
2018-07-24T10:42:18.533Z,3.10
2018-07-24T10:44:46.910Z,3.40
2018-07-24T10:47:15.312Z,3.13
2018-07-24T10:49:43.701Z,3.30
2018-07-24T10:52:12.122Z,3.30
2018-07-24T10:54:40.490Z,3.17
2018-07-24T10:57:08.890Z,3.20
2018-07-24T10:59:37.267Z,3.10
2018-07-24T11:02:05.669Z,3.17
2018-07-24T11:04:34.079Z,2.97
2018-07-24T11:07:02.514Z,2.87
2018-07-24T11:09:30.886Z,2.97
2018-07-24T11:11:59.338Z,2.47
2018-07-24T11:14:27.738Z,2.77
2018-07-24T11:16:56.117Z,3.13
2018-07-24T11:19:24.552Z,3.57
2018-07-24T11:21:52.961Z,2.20
2018-07-24T11:24:21.392Z,2.90
2018-07-24T11:26:49.778Z,3.13
2018-07-24T11:29:18.177Z,2.57
2018-07-24T11:31:46.555Z,2.83
2018-07-24T11:34:14.973Z,2.30
2018-07-24T11:36:43.355Z,2.90
2018-07-24T11:41:52.139Z,2.67
2018-07-24T11:44:21.010Z,2.57
2018-07-24T11:46:49.394Z,2.73
2018-07-24T11:49:17.810Z,3.30
2018-07-24T11:51:46.203Z,2.97
2018-07-24T11:54:14.623Z,4.03
2018-07-24T11:56:43.002Z,3.13
2018-07-24T11:59:11.397Z,2.70
2018-07-24T12:01:39.767Z,2.50
2018-07-24T12:04:08.166Z,3.63
2018-07-24T12:06:36.552Z,2.63
2018-07-24T12:09:08.397Z,2.50
2018-07-24T12:11:36.793Z,2.10
2018-07-24T12:14:05.214Z,2.63
2018-07-24T12:16:33.602Z,2.50
2018-07-24T12:19:02.022Z,2.40
2018-07-24T12:21:30.406Z,3.30
2018-07-24T12:23:58.805Z,2.43
2018-07-24T12:26:27.177Z,2.70
2018-07-24T12:28:55.575Z,3.03
2018-07-24T12:31:23.959Z,3.03
2018-07-24T12:33:52.382Z,2.80
2018-07-24T12:36:20.754Z,3.00
2018-07-24T12:38:49.149Z,3.53
2018-07-24T12:41:17.525Z,2.63
2018-07-24T12:43:45.926Z,2.60
2018-07-24T12:46:14.416Z,3.50
2018-07-24T12:48:42.821Z,2.50
2018-07-24T12:51:11.234Z,2.43
2018-07-24T12:53:39.645Z,2.97
2018-07-24T12:56:08.056Z,2.30
2018-07-24T12:58:36.505Z,2.23
2018-07-24T13:01:04.898Z,2.77
2018-07-24T13:03:33.466Z,2.17
2018-07-24T13:06:01.877Z,2.40
2018-07-24T13:08:30.274Z,2.70
2018-07-24T13:10:58.699Z,2.27
2018-07-24T13:13:27.038Z,2.60
2018-07-24T13:15:55.438Z,2.70
2018-07-24T13:18:23.824Z,2.73
2018-07-24T13:20:52.238Z,2.70
2018-07-24T13:23:20.622Z,2.90
2018-07-24T13:25:49.103Z,2.60
2018-07-24T13:28:17.481Z,2.30
2018-07-24T13:30:45.890Z,2.40
2018-07-24T13:33:14.266Z,2.40
2018-07-24T13:35:42.685Z,3.17
2018-07-24T13:38:11.064Z,2.80
2018-07-24T13:40:39.575Z,2.40
2018-07-24T13:43:08.067Z,2.00
2018-07-24T13:45:36.471Z,2.50
2018-07-24T13:48:04.850Z,2.40
2018-07-24T13:50:33.251Z,2.10
2018-07-24T13:53:01.675Z,2.20
2018-07-24T13:55:30.145Z,1.87
2018-07-24T13:57:58.513Z,2.47
2018-07-24T14:00:26.901Z,2.47
2018-07-24T14:02:55.281Z,2.50
2018-07-24T14:05:23.673Z,2.13
2018-07-24T14:07:52.042Z,2.70
2018-07-24T14:10:20.598Z,2.27
2018-07-24T14:12:48.970Z,2.50
2018-07-24T14:15:17.362Z,2.50
2018-07-24T14:17:45.758Z,2.30
2018-07-24T14:20:14.196Z,2.70
2018-07-24T14:22:42.608Z,2.33
2018-07-24T14:25:11.019Z,2.80
2018-07-24T14:27:39.402Z,4.37
2018-07-24T14:30:08.317Z,2.60
2018-07-24T14:32:36.690Z,2.37
2018-07-24T14:35:05.095Z,2.43
2018-07-24T14:37:33.473Z,2.70
2018-07-24T14:40:01.889Z,2.57
2018-07-24T14:42:30.271Z,2.93
2018-07-24T14:44:58.671Z,2.80
2018-07-24T14:47:27.049Z,3.20
2018-07-24T14:49:55.454Z,2.90
2018-07-24T14:52:23.849Z,2.90
2018-07-24T14:54:52.281Z,3.20
2018-07-24T14:57:20.656Z,3.07
2018-07-24T14:59:49.059Z,2.93
2018-07-24T15:02:17.450Z,2.27
2018-07-24T15:04:45.905Z,2.80
2018-07-24T15:07:14.262Z,3.57
2018-07-24T15:09:42.630Z,2.60
2018-07-24T15:12:11.136Z,2.90
2018-07-24T15:14:39.619Z,3.10
2018-07-24T15:17:08.028Z,3.33
2018-07-24T15:19:36.454Z,2.93
2018-07-24T15:22:04.867Z,3.40
2018-07-24T15:24:33.246Z,3.20
2018-07-24T15:27:01.660Z,3.60
2018-07-24T15:29:30.677Z,3.30
2018-07-24T15:31:59.092Z,3.60
2018-07-24T15:34:27.653Z,2.97
2018-07-24T15:36:55.910Z,3.03
2018-07-24T15:39:24.282Z,3.27
2018-07-24T15:41:52.669Z,3.10
2018-07-24T15:44:21.193Z,3.13
2018-07-24T15:46:49.636Z,3.20
2018-07-24T15:49:18.011Z,3.30
2018-07-24T15:51:46.431Z,3.80
2018-07-24T15:54:14.815Z,3.20
2018-07-24T15:56:43.218Z,3.60
2018-07-24T15:59:11.686Z,3.47
2018-07-24T16:01:40.093Z,3.50
2018-07-24T16:04:08.478Z,3.73
2018-07-24T16:06:36.896Z,3.87
2018-07-24T16:09:08.303Z,2.70
2018-07-24T16:11:36.708Z,2.70
2018-07-24T16:14:05.116Z,3.17
2018-07-24T16:16:33.519Z,3.27
2018-07-24T16:19:02.090Z,3.90
2018-07-24T16:21:30.485Z,3.20
2018-07-24T16:23:58.877Z,3.10
2018-07-24T16:26:27.317Z,3.57
2018-07-24T16:28:55.685Z,3.30
2018-07-24T16:31:24.094Z,3.80
2018-07-24T16:33:52.469Z,3.40
2018-07-24T16:36:20.861Z,4.10
2018-07-24T16:38:49.247Z,3.00
2018-07-24T16:41:17.661Z,3.87
2018-07-24T16:43:46.051Z,3.43
2018-07-24T16:46:14.462Z,3.50
2018-07-24T16:48:42.842Z,3.70
2018-07-24T16:51:11.250Z,4.20
2018-07-24T16:53:39.631Z,3.63
2018-07-24T16:56:08.047Z,3.43
2018-07-24T16:58:36.439Z,4.23
2018-07-24T17:01:04.856Z,2.70
2018-07-24T17:03:33.229Z,3.03
2018-07-24T17:06:01.630Z,3.80
2018-07-24T17:08:30.014Z,2.93
2018-07-24T17:10:58.394Z,3.67
2018-07-24T17:13:26.806Z,3.07
2018-07-24T17:15:55.182Z,3.00
2018-07-24T17:18:23.586Z,3.87
2018-07-24T17:20:51.978Z,2.80
2018-07-24T17:23:20.414Z,3.67
2018-07-24T17:25:49.047Z,3.43
2018-07-24T17:28:17.458Z,3.40
2018-07-24T17:30:45.837Z,3.60
2018-07-24T17:33:14.237Z,3.57
2018-07-24T17:35:42.696Z,3.47
2018-07-24T17:38:11.074Z,3.23
2018-07-24T17:40:39.549Z,3.73
2018-07-24T17:43:07.990Z,3.30
2018-07-24T17:45:36.409Z,3.93
2018-07-24T17:48:04.805Z,3.30
2018-07-24T17:50:33.242Z,3.73
2018-07-24T17:53:01.616Z,3.70
2018-07-24T17:55:29.999Z,3.67
2018-07-24T17:57:58.393Z,3.80
2018-07-24T18:00:27.056Z,3.50
2018-07-24T18:02:55.570Z,3.77
2018-07-24T18:05:23.943Z,4.10
2018-07-24T18:07:52.349Z,4.70
2018-07-24T18:10:20.790Z,3.40
2018-07-24T18:12:49.175Z,4.00
2018-07-24T18:15:17.548Z,3.70
2018-07-24T18:17:45.933Z,4.13
2018-07-24T18:20:14.426Z,4.20
2018-07-24T18:22:42.831Z,4.00
2018-07-24T18:25:11.196Z,4.03
2018-07-24T18:27:39.616Z,4.37
2018-07-24T18:30:07.994Z,4.47
2018-07-24T18:32:36.393Z,3.90
2018-07-24T18:35:04.766Z,3.93
2018-07-24T18:37:33.167Z,4.20
2018-07-24T18:40:01.542Z,4.33
2018-07-24T18:42:29.948Z,4.10
2018-07-24T18:44:58.381Z,3.90
2018-07-24T18:47:26.758Z,4.27
2018-07-24T18:49:55.134Z,5.10
2018-07-24T18:52:23.523Z,3.87
2018-07-24T18:54:51.933Z,4.33
2018-07-24T18:57:20.339Z,4.13
2018-07-24T18:59:48.722Z,3.63
2018-07-24T19:02:17.117Z,4.57
2018-07-24T19:04:45.492Z,4.10
2018-07-24T19:07:13.877Z,4.87
2018-07-24T19:09:42.238Z,5.10
2018-07-24T19:12:10.738Z,4.43
2018-07-24T19:14:39.151Z,4.73
2018-07-24T19:17:07.582Z,4.60
2018-07-24T19:19:35.999Z,5.20
2018-07-24T19:22:04.393Z,4.43
2018-07-24T19:24:32.787Z,4.57
2018-07-24T19:27:01.177Z,4.10
2018-07-24T19:29:29.570Z,4.27
2018-07-24T19:31:57.941Z,3.87
2018-07-24T19:34:26.355Z,4.63
2018-07-24T19:36:54.744Z,4.53
2018-07-24T19:39:23.149Z,4.57
2018-07-24T19:41:51.514Z,4.60
2018-07-24T19:44:19.906Z,5.03
2018-07-24T19:46:48.269Z,5.03
2018-07-24T19:49:16.674Z,5.10
2018-07-24T19:51:45.133Z,4.83
2018-07-24T19:54:13.536Z,4.60
2018-07-24T19:56:41.901Z,4.73
2018-07-24T19:59:10.301Z,6.70
2018-07-24T20:01:38.691Z,4.73
2018-07-24T20:04:07.091Z,4.53
2018-07-24T20:06:35.541Z,4.90
2018-07-24T20:09:06.003Z,5.00
2018-07-24T20:11:34.374Z,4.90
2018-07-24T20:14:02.766Z,4.90
2018-07-24T20:16:31.150Z,4.30
2018-07-24T20:18:59.577Z,5.27
2018-07-24T20:21:27.969Z,4.67
2018-07-24T20:23:56.353Z,5.53
2018-07-24T20:26:24.719Z,5.20
2018-07-24T20:28:53.172Z,4.70
2018-07-24T20:31:21.513Z,5.10
2018-07-24T20:33:49.915Z,5.77
2018-07-24T20:36:18.286Z,5.77
2018-07-24T20:38:46.714Z,4.70
2018-07-24T20:41:15.083Z,4.80
2018-07-24T20:43:43.480Z,5.90
2018-07-24T20:46:11.858Z,5.63
2018-07-24T20:48:40.261Z,5.50
2018-07-24T20:51:08.723Z,5.23
2018-07-24T20:53:37.268Z,5.33
2018-07-24T20:56:05.711Z,5.57
2018-07-24T20:58:34.369Z,5.47
2018-07-24T21:01:02.743Z,5.60
2018-07-24T21:03:31.183Z,5.40
2018-07-24T21:05:59.597Z,5.93
2018-07-24T21:08:28.115Z,4.10
2018-07-24T21:10:56.489Z,5.80
2018-07-24T21:13:24.862Z,5.70
2018-07-24T21:15:53.253Z,5.80
2018-07-24T21:18:21.627Z,5.60
2018-07-24T21:20:50.044Z,4.90
2018-07-24T21:23:18.454Z,5.53
2018-07-24T21:25:46.846Z,5.40
2018-07-24T21:28:15.217Z,5.87
2018-07-24T21:30:43.613Z,5.83
2018-07-24T21:33:11.981Z,5.30
2018-07-24T21:35:40.374Z,5.57
2018-07-24T21:38:08.746Z,6.63
2018-07-24T21:40:37.147Z,7.20
2018-07-24T21:43:05.521Z,6.30
2018-07-24T21:45:34.032Z,6.20
2018-07-24T21:48:02.398Z,6.27
2018-07-24T21:50:30.789Z,6.20
2018-07-24T21:52:59.166Z,6.30
2018-07-24T21:55:27.570Z,5.67
2018-07-24T21:57:56.001Z,6.40
2018-07-24T22:00:24.454Z,5.93
2018-07-24T22:02:52.813Z,6.50
2018-07-24T22:05:21.217Z,6.90
2018-07-24T22:07:49.595Z,6.37
2018-07-24T22:10:22.478Z,6.60
2018-07-24T22:12:51.753Z,6.87
2018-07-24T22:15:25.278Z,6.93
2018-07-24T22:17:54.031Z,7.40
2018-07-24T22:20:22.758Z,6.20
2018-07-24T22:22:51.618Z,6.33
2018-07-24T22:25:20.010Z,7.33
2018-07-24T22:27:48.377Z,6.20
2018-07-24T22:30:16.779Z,6.33
2018-07-24T22:32:45.161Z,6.20
2018-07-24T22:35:13.555Z,6.40
2018-07-24T22:37:41.939Z,8.00
2018-07-24T22:40:11.629Z,7.00
2018-07-24T22:42:40.038Z,7.27
2018-07-24T22:45:08.793Z,7.10
2018-07-24T22:47:37.253Z,6.57
2018-07-24T22:50:06.415Z,6.93
2018-07-24T22:52:34.777Z,7.73
2018-07-24T22:55:03.179Z,7.20
2018-07-24T22:57:31.546Z,8.00
2018-07-24T22:59:59.933Z,8.57
2018-07-24T23:02:28.298Z,8.30
2018-07-24T23:04:56.693Z,9.33
2018-07-24T23:07:25.071Z,8.20
2018-07-24T23:09:53.466Z,8.03
2018-07-24T23:12:21.840Z,9.40
2018-07-24T23:14:50.238Z,9.70
2018-07-24T23:17:18.610Z,9.80
2018-07-24T23:19:46.997Z,8.57
2018-07-24T23:22:15.406Z,9.77
2018-07-24T23:24:44.106Z,7.63
2018-07-24T23:27:12.505Z,9.70
2018-07-24T23:29:40.877Z,9.03
2018-07-24T23:32:09.261Z,9.80
2018-07-24T23:34:37.633Z,11.10
2018-07-24T23:37:06.042Z,9.03
2018-07-24T23:39:34.425Z,8.33
2018-07-24T23:42:02.817Z,9.27
2018-07-24T23:44:31.184Z,9.27
2018-07-24T23:46:59.569Z,9.23
2018-07-24T23:49:27.934Z,9.00
2018-07-24T23:51:56.329Z,8.93
2018-07-24T23:54:24.705Z,9.17
2018-07-24T23:56:53.158Z,9.17
2018-07-24T23:59:21.503Z,9.03
